Time;durP1;ratioP1;P1;durP2;ratioP2;P2;SDS_P1;SDS_P2;PMS_P1;PMS_P2;Temp;Humidity;BMP_temperature;BMP_pressure;BME280_temperature;BME280_humidity;BME280_pressure;Samples;Min_cycle;Max_cycle;Signal;HPM_P1;HPM_P2
2023/09/25 04:22:37;;;;;;;2.40;1.63;;;;;;;9.66;100.00;100880.66;5089270;28;20328;-66
2023/09/25 04:25:08;;;;;;;3.50;1.92;;;;;;;9.68;99.28;100881.34;5089551;28;20024;-66
2023/09/25 04:27:33;;;;;;;3.13;1.75;;;;;;;9.71;98.91;100886.34;5069330;28;20037;-67
2023/09/25 04:29:59;;;;;;;3.03;1.88;;;;;;;9.73;98.31;100878.22;5069187;28;20418;-66
2023/09/25 04:32:24;;;;;;;2.28;1.70;;;;;;;9.79;98.00;100877.63;5069051;28;20031;-67
2023/09/25 04:34:49;;;;;;;2.90;2.00;;;;;;;9.81;97.58;100874.81;5068949;28;20071;-67
2023/09/25 04:37:16;;;;;;;9.70;2.33;;;;;;;9.80;97.96;100879.28;5068987;28;20120;-67
2023/09/25 04:39:41;;;;;;;3.22;1.70;;;;;;;9.82;97.20;100871.16;5068881;28;20101;-67
2023/09/25 04:42:09;;;;;;;2.47;1.60;;;;;;;9.84;97.16;100875.31;5068871;28;20511;-67
2023/09/25 04:44:35;;;;;;;;;;;;;;;9.84;97.45;100867.34;5069100;28;20082;-66
2023/09/25 04:47:00;;;;;;;2.72;1.70;;;;;;;9.86;97.12;100873.38;5068992;28;19917;-66
2023/09/25 04:49:26;;;;;;;3.35;1.85;;;;;;;9.88;96.97;100879.34;5068760;28;20041;-67
2023/09/25 04:51:51;;;;;;;2.80;1.77;;;;;;;9.87;97.41;100874.19;5068797;28;20033;-67
2023/09/25 04:54:17;;;;;;;2.95;2.08;;;;;;;9.88;97.19;100878.53;5068453;28;20048;-65
2023/09/25 04:56:42;;;;;;;3.58;1.70;;;;;;;9.87;96.92;100877.69;5068594;28;20031;-65
2023/09/25 04:59:08;;;;;;;3.80;1.70;;;;;;;9.89;96.81;100880.19;5068636;28;20044;-65
2023/09/25 05:01:33;;;;;;;3.42;1.90;;;;;;;9.87;97.43;100888.34;5068490;28;20067;-65
2023/09/25 05:03:58;;;;;;;3.42;1.88;;;;;;;9.86;97.87;100891.16;5068188;28;20048;-67
2023/09/25 05:06:24;;;;;;;2.85;1.65;;;;;;;9.85;98.36;100887.66;5068357;28;20048;-65
2023/09/25 05:08:49;;;;;;;3.58;1.95;;;;;;;9.84;98.03;100887.78;5068230;28;20047;-67
2023/09/25 05:11:15;;;;;;;3.78;2.13;;;;;;;9.69;100.00;100890.16;5068308;28;20025;-67
2023/09/25 05:13:40;;;;;;;3.33;1.88;;;;;;;9.66;100.00;100893.13;5067988;28;20064;-66
2023/09/25 05:16:06;;;;;;;2.63;1.88;;;;;;;9.61;100.00;100884.75;5067934;28;20475;-65
2023/09/25 05:18:31;;;;;;;3.30;2.22;;;;;;;9.58;100.00;100882.38;5067149;28;20047;-65
2023/09/25 05:20:58;;;;;;;3.45;2.30;;;;;;;9.55;100.00;100888.03;5067126;28;20510;-65
2023/09/25 05:23:24;;;;;;;4.38;2.15;;;;;;;9.50;100.00;100897.28;5067014;28;20032;-65
2023/09/25 05:25:50;;;;;;;2.67;1.77;;;;;;;9.48;100.00;100890.44;5067130;28;20113;-65
2023/09/25 05:28:15;;;;;;;4.22;1.90;;;;;;;9.32;100.00;100888.44;5064512;28;20148;-65
2023/09/25 05:30:41;;;;;;;3.13;2.03;;;;;;;9.35;100.00;100893.47;5066651;28;20170;-65
2023/09/25 05:33:06;;;;;;;2.67;1.92;;;;;;;9.31;100.00;100897.41;5058777;28;20037;-65
2023/09/25 05:35:31;;;;;;;3.47;2.30;;;;;;;9.25;100.00;100893.50;5054525;28;20037;-65
2023/09/25 05:37:57;;;;;;;3.83;2.17;;;;;;;9.25;100.00;100895.34;5054672;28;20033;-66
2023/09/25 05:40:22;;;;;;;3.15;2.58;;;;;;;9.28;100.00;100896.88;5054456;28;20047;-66
2023/09/25 05:42:49;;;;;;;2.78;2.00;;;;;;;9.24;100.00;100906.97;5054123;28;20045;-65
2023/09/25 05:45:17;;;;;;;3.93;2.27;;;;;;;9.23;100.00;100905.28;5054302;28;20043;-65
2023/09/25 05:47:45;;;;;;;;;;;;;;;9.22;100.00;100906.28;5054787;28;20685;-65
2023/09/25 05:50:11;;;;;;;3.65;2.00;;;;;;;9.27;100.00;100905.84;5054374;28;19924;-65
2023/09/25 05:52:37;;;;;;;3.28;1.90;;;;;;;9.28;100.00;100896.88;5054086;28;20041;-65
2023/09/25 05:55:04;;;;;;;3.00;1.60;;;;;;;9.30;100.00;100903.72;5054275;28;20036;-65
2023/09/25 05:57:30;;;;;;;2.95;1.77;;;;;;;9.27;100.00;100900.53;5054224;28;20111;-65
2023/09/25 05:59:57;;;;;;;3.63;2.13;;;;;;;9.29;100.00;100904.69;5054178;28;20442;-62
2023/09/25 06:02:22;;;;;;;3.63;1.92;;;;;;;9.32;100.00;100899.06;5054055;28;20037;-62
2023/09/25 06:04:48;;;;;;;3.38;2.10;;;;;;;9.32;100.00;100896.41;5053840;28;20041;-61
2023/09/25 06:07:16;;;;;;;5.32;2.50;;;;;;;9.35;100.00;100904.09;5053981;28;20051;-62
2023/09/25 06:09:41;;;;;;;;;;;;;;;9.41;100.00;100908.84;5053248;28;20037;-63
2023/09/25 06:12:09;;;;;;;4.25;2.55;;;;;;;9.42;100.00;100910.50;5053934;28;19924;-62
2023/09/25 06:14:35;;;;;;;5.20;2.58;;;;;;;9.47;100.00;100915.38;5053731;28;20047;-62
2023/09/25 06:17:00;;;;;;;3.92;2.10;;;;;;;9.52;100.00;100918.44;5053657;28;20040;-62
2023/09/25 06:19:26;;;;;;;3.85;2.05;;;;;;;9.53;100.00;100914.78;5052565;28;20103;-63
2023/09/25 06:21:53;;;;;;;3.38;2.00;;;;;;;9.62;100.00;100916.53;5053511;28;20037;-60
2023/09/25 06:24:19;;;;;;;4.93;2.03;;;;;;;9.70;100.00;100916.59;5053424;28;20559;-60
2023/09/25 06:26:48;;;;;;;5.63;2.00;;;;;;;9.77;100.00;100914.16;5053632;28;20136;-62
2023/09/25 06:29:14;;;;;;;3.05;1.98;;;;;;;9.80;100.00;100924.53;5053583;28;20033;-62
2023/09/25 06:31:40;;;;;;;3.95;2.30;;;;;;;9.84;100.00;100927.69;5053613;28;20403;-63
2023/09/25 06:34:09;;;;;;;3.58;2.17;;;;;;;9.89;100.00;100934.25;5053224;28;20045;-63
2023/09/25 06:36:35;;;;;;;4.40;2.58;;;;;;;9.95;100.00;100932.81;5052265;28;20040;-62
2023/09/25 06:39:02;;;;;;;3.42;1.98;;;;;;;10.00;100.00;100926.03;5053378;28;20037;-61
2023/09/25 06:41:27;;;;;;;3.60;2.20;;;;;;;10.07;100.00;100927.09;5053343;28;20037;-62
2023/09/25 06:43:56;;;;;;;3.28;2.20;;;;;;;10.14;100.00;100927.31;5052278;28;20076;-63
2023/09/25 06:46:22;;;;;;;6.28;2.20;;;;;;;10.29;100.00;100930.28;5053155;28;20033;-61
2023/09/25 06:48:50;;;;;;;3.65;2.20;;;;;;;10.51;100.00;100934.28;5053214;28;20041;-63
2023/09/25 06:51:16;;;;;;;3.47;2.20;;;;;;;10.52;100.00;100931.47;5053111;28;20137;-61
2023/09/25 06:53:43;;;;;;;3.55;2.28;;;;;;;10.64;100.00;100940.03;5052916;28;20041;-64
2023/09/25 06:56:08;;;;;;;3.78;2.25;;;;;;;10.63;99.33;100946.38;5053050;28;20098;-63
2023/09/25 06:58:34;;;;;;;3.13;2.00;;;;;;;10.59;99.28;100937.84;5053056;28;20495;-63
2023/09/25 07:00:59;;;;;;;3.72;2.28;;;;;;;10.60;100.00;100936.84;5053051;28;20039;-61
2023/09/25 07:03:24;;;;;;;7.18;2.08;;;;;;;10.64;99.68;100929.38;5052700;28;20487;-63
2023/09/25 07:05:50;;;;;;;3.92;2.17;;;;;;;10.69;100.00;100936.88;5052846;28;20040;-62
2023/09/25 07:08:15;;;;;;;3.72;2.20;;;;;;;10.72;98.52;100939.25;5052889;28;20560;-60
2023/09/25 07:10:45;;;;;;;5.30;2.17;;;;;;;10.74;97.08;100946.09;5052764;28;20037;-62
2023/09/25 07:13:11;;;;;;;4.00;2.00;;;;;;;10.80;97.45;100941.97;5051334;28;20037;-63
2023/09/25 07:15:36;;;;;;;3.83;2.03;;;;;;;10.87;96.85;100945.66;5052807;28;20041;-63
2023/09/25 07:18:02;;;;;;;3.85;2.22;;;;;;;10.93;97.28;100954.84;5052780;28;20112;-63
2023/09/25 07:20:27;;;;;;;2.33;1.75;;;;;;;11.01;96.97;100961.06;5052587;28;20455;-62
2023/09/25 07:22:52;;;;;;;3.47;1.83;;;;;;;11.04;95.42;100958.09;5051109;28;20048;-64
2023/09/25 07:25:18;;;;;;;3.20;1.80;;;;;;;11.12;95.21;100967.97;5052617;28;20024;-64
2023/09/25 07:27:43;;;;;;;3.03;1.83;;;;;;;11.18;93.56;100959.31;5052563;28;20077;-62
2023/09/25 07:30:10;;;;;;;3.78;2.10;;;;;;;11.25;95.77;100959.53;5052564;28;20129;-62
2023/09/25 07:32:37;;;;;;;3.78;2.30;;;;;;;11.32;96.91;100957.88;5052254;28;20076;-61
2023/09/25 07:35:07;;;;;;;4.05;2.25;;;;;;;11.36;94.47;100961.91;5052444;28;20519;-63
2023/09/25 07:37:32;;;;;;;2.95;1.80;;;;;;;11.41;92.41;100959.59;5052414;28;20099;-63
2023/09/25 07:39:58;;;;;;;4.57;2.00;;;;;;;11.46;93.56;100954.59;5052298;28;20040;-63
2023/09/25 07:42:24;;;;;;;2.63;1.83;;;;;;;11.49;91.54;100961.44;5052208;28;20119;-63
2023/09/25 07:44:49;;;;;;;2.63;1.70;;;;;;;11.54;92.62;100954.63;5052122;28;20120;-64
2023/09/25 07:47:17;;;;;;;3.42;2.47;;;;;;;11.61;92.17;100963.66;5051966;28;20033;-64
2023/09/25 07:49:45;;;;;;;2.47;1.67;;;;;;;11.66;94.42;100963.97;5052190;28;20423;-63
2023/09/25 07:52:15;;;;;;;3.38;2.03;;;;;;;11.75;94.06;100977.38;5051931;28;20041;-64
2023/09/25 07:54:45;;;;;;;5.13;2.10;;;;;;;11.81;94.10;100950.91;5051943;28;20037;-63
2023/09/25 07:57:15;;;;;;;3.08;2.10;;;;;;;11.89;94.34;100963.41;5051774;28;20048;-64
2023/09/25 07:59:43;;;;;;;4.57;2.20;;;;;;;11.94;93.71;100958.44;5052059;28;20037;-63
2023/09/25 08:02:09;;;;;;;3.72;2.15;;;;;;;12.03;93.75;100967.28;5051959;28;20479;-64
2023/09/25 08:04:38;;;;;;;3.00;1.83;;;;;;;12.08;93.60;100963.09;5051734;28;20049;-63
2023/09/25 08:07:03;;;;;;;3.17;1.85;;;;;;;12.17;93.66;100969.28;5051824;28;20048;-64
2023/09/25 08:09:31;;;;;;;3.45;2.00;;;;;;;12.23;91.39;100969.44;5051953;28;20021;-64
2023/09/25 08:11:56;;;;;;;3.35;2.17;;;;;;;12.34;91.65;100964.78;5051873;28;20112;-63
2023/09/25 08:14:22;;;;;;;2.30;1.70;;;;;;;12.42;91.56;100970.13;5050394;28;20131;-62
2023/09/25 08:16:48;;;;;;;2.72;1.45;;;;;;;12.55;91.86;100978.47;5051805;28;20075;-62
2023/09/25 08:19:17;;;;;;;2.13;1.60;;;;;;;12.64;91.86;100987.31;5051725;28;20553;-63
2023/09/25 08:21:43;;;;;;;3.30;1.80;;;;;;;12.79;91.28;100985.63;5051801;28;20037;-63
2023/09/25 08:24:08;;;;;;;2.63;1.60;;;;;;;12.93;89.35;100987.59;5051791;28;20048;-62
2023/09/25 08:26:34;;;;;;;3.15;1.58;;;;;;;13.03;88.51;100980.19;5051775;28;20040;-62
2023/09/25 08:29:01;;;;;;;3.35;1.58;;;;;;;13.12;87.89;100991.75;5051736;28;20412;-64
2023/09/25 08:31:27;;;;;;;5.25;1.80;;;;;;;13.22;87.09;100983.53;5051507;28;20119;-62
2023/09/25 08:33:52;;;;;;;3.22;1.60;;;;;;;13.35;87.27;100982.97;5051686;28;20123;-63
2023/09/25 08:36:18;;;;;;;3.33;1.52;;;;;;;13.46;87.51;100978.09;5051674;28;20049;-64
2023/09/25 08:38:43;;;;;;;2.70;1.60;;;;;;;13.61;85.90;100983.53;5051454;28;20044;-63
2023/09/25 08:41:10;;;;;;;3.00;1.80;;;;;;;13.73;84.33;100983.97;5051744;28;20083;-64
2023/09/25 08:43:36;;;;;;;2.42;1.52;;;;;;;13.89;81.93;100978.53;5051378;28;20036;-64
2023/09/25 08:46:02;;;;;;;2.83;1.55;;;;;;;13.98;81.58;100982.00;5051333;28;20380;-61
2023/09/25 08:48:27;;;;;;;2.47;1.63;;;;;;;14.11;80.82;100976.88;5051454;28;20044;-64
2023/09/25 08:50:53;;;;;;;4.38;1.65;;;;;;;14.60;78.71;100969.28;5051444;28;20098;-64
2023/09/25 08:53:18;;;;;;;2.70;1.58;;;;;;;14.91;74.80;100974.50;5051205;28;20068;-63
2023/09/25 08:55:44;;;;;;;4.20;1.60;;;;;;;15.00;74.45;100974.44;5051431;28;20056;-65
2023/09/25 08:58:10;;;;;;;11.10;2.47;;;;;;;15.08;76.10;100977.03;5051377;28;20136;-64
2023/09/25 09:00:38;;;;;;;3.25;1.60;;;;;;;15.14;76.37;100969.06;5051410;28;20476;-64
2023/09/25 09:03:04;;;;;;;5.13;1.80;;;;;;;15.48;72.66;100968.47;5051051;28;20033;-62
2023/09/25 09:05:30;;;;;;;2.53;1.60;;;;;;;15.87;70.43;100971.84;5051289;28;20037;-64
2023/09/25 09:07:59;;;;;;;2.97;1.65;;;;;;;15.93;70.18;100960.34;5052794;28;20048;-62
2023/09/25 09:10:39;;;;;;;1.80;1.30;;;;;;;15.85;69.49;100969.34;5055052;28;20045;-63
2023/09/25 09:13:10;;;;;;;3.45;1.60;;;;;;;15.82;67.89;100969.72;5054716;28;20041;-64
2023/09/25 09:15:36;;;;;;;3.00;1.65;;;;;;;15.83;67.85;100970.53;5054905;28;20083;-63
2023/09/25 09:18:18;;;;;;;5.43;2.20;;;;;;;15.93;68.74;100958.47;5055012;28;20024;-63
2023/09/25 09:20:44;;;;;;;2.63;1.80;;;;;;;16.06;67.79;100957.78;5054925;28;20289;-65
2023/09/25 09:23:10;;;;;;;2.85;1.55;;;;;;;16.42;67.08;100944.22;5054801;28;20041;-63
2023/09/25 09:25:35;;;;;;;2.70;1.50;;;;;;;16.51;66.90;100948.47;5054674;28;20037;-63
2023/09/25 09:28:03;;;;;;;2.28;1.40;;;;;;;16.78;63.44;100948.69;5054800;28;20048;-63
2023/09/25 09:30:29;;;;;;;2.40;1.42;;;;;;;16.89;63.84;100958.03;5054605;28;20059;-63
2023/09/25 09:32:54;;;;;;;2.55;1.52;;;;;;;17.07;66.77;100950.28;5054450;28;20119;-64
2023/09/25 09:35:25;;;;;;;3.58;1.85;;;;;;;17.20;67.64;100955.75;5054591;28;20033;-62
2023/09/25 09:37:57;;;;;;;4.43;1.55;;;;;;;17.39;62.87;100948.78;5054655;28;20032;-64
2023/09/25 09:40:25;;;;;;;3.20;1.63;;;;;;;17.57;64.96;100949.06;5053852;28;20033;-64
2023/09/25 09:42:52;;;;;;;5.82;2.00;;;;;;;17.96;65.33;100939.47;5053532;28;20090;-64
2023/09/25 09:45:18;;;;;;;2.42;1.70;;;;;;;18.39;61.77;100947.19;5054093;28;20041;-64
2023/09/25 09:47:46;;;;;;;4.13;1.88;;;;;;;18.49;58.80;100944.06;5054493;28;20496;-63
2023/09/25 09:50:13;;;;;;;2.72;1.88;;;;;;;18.79;56.27;100941.78;5054366;28;20033;-62
2023/09/25 09:52:39;;;;;;;2.90;1.52;;;;;;;19.20;55.89;100945.00;5054079;28;20087;-62
2023/09/25 09:55:08;;;;;;;3.47;1.80;;;;;;;19.57;53.92;100934.47;5054317;28;20106;-65
2023/09/25 09:57:34;;;;;;;3.00;1.73;;;;;;;20.11;50.65;100933.13;5054272;28;20036;-63
2023/09/25 09:59:59;;;;;;;4.53;1.85;;;;;;;20.52;48.29;100924.47;5053885;28;20092;-63
2023/09/25 10:02:28;;;;;;;2.22;1.70;;;;;;;20.89;47.45;100921.81;5053727;28;20032;-64
2023/09/25 10:04:56;;;;;;;2.20;1.55;;;;;;;21.71;46.08;100921.44;5051367;28;20556;-64
2023/09/25 10:07:22;;;;;;;2.20;1.40;;;;;;;22.43;44.09;100922.22;5053505;28;20068;-64
2023/09/25 10:10:04;;;;;;;3.63;1.88;;;;;;;22.72;43.47;100917.75;5053512;28;20079;-63
2023/09/25 10:12:48;;;;;;;2.10;1.52;;;;;;;23.09;42.76;100920.22;5053132;28;20029;-65
2023/09/25 10:15:21;;;;;;;2.10;1.40;;;;;;;23.37;42.04;100909.38;5051295;28;20075;-65
2023/09/25 10:17:48;;;;;;;1.95;1.45;;;;;;;24.19;40.56;100908.16;5053327;28;20090;-65
2023/09/25 10:20:33;;;;;;;4.25;1.63;;;;;;;24.75;39.83;100900.88;5053131;28;20120;-63
2023/09/25 10:23:22;;;;;;;4.30;1.65;;;;;;;24.81;38.55;100905.31;5051509;28;20407;-64
2023/09/25 10:25:52;;;;;;;2.92;1.60;;;;;;;24.86;38.14;100900.75;5052742;28;20033;-61
2023/09/25 10:28:21;;;;;;;4.22;1.63;;;;;;;25.11;38.47;100910.38;5053345;28;20034;-61
2023/09/25 10:30:48;;;;;;;3.45;1.50;;;;;;;25.65;37.28;100907.72;5053125;28;20037;-63
2023/09/25 10:33:15;;;;;;;2.58;1.50;;;;;;;25.75;36.93;100904.28;5053061;28;20028;-63
2023/09/25 10:35:48;;;;;;;3.08;1.60;;;;;;;26.60;35.49;100903.34;5053116;28;20040;-63
2023/09/25 10:38:26;;;;;;;3.53;1.60;;;;;;;26.56;36.43;100896.78;5050473;28;20404;-64
2023/09/25 10:40:54;;;;;;;2.20;1.70;;;;;;;27.27;34.90;100894.44;5050059;28;20025;-63
2023/09/25 10:43:22;;;;;;;1.80;1.25;;;;;;;26.44;34.98;100893.44;5053202;28;20087;-64
2023/09/25 10:45:48;;;;;;;3.47;1.50;;;;;;;26.79;34.69;100898.28;5053295;28;20033;-64
2023/09/25 10:48:14;;;;;;;2.03;1.30;;;;;;;26.76;34.34;100896.09;5053262;28;20037;-64
2023/09/25 10:50:41;;;;;;;2.43;1.40;;;;;;;27.37;33.64;100898.28;5053151;28;20036;-64
2023/09/25 10:53:07;;;;;;;2.45;1.60;;;;;;;27.72;32.91;100900.31;5052972;28;20047;-64
2023/09/25 10:55:34;;;;;;;2.90;1.70;;;;;;;28.25;32.58;100898.16;5053086;28;20492;-64
2023/09/25 10:58:04;;;;;;;4.63;1.52;;;;;;;26.87;35.65;100888.78;5053140;28;20076;-63
2023/09/25 11:00:34;;;;;;;3.10;1.80;;;;;;;28.14;33.28;100894.56;5053009;28;20036;-64
2023/09/25 11:03:01;;;;;;;3.63;1.45;;;;;;;28.87;31.88;100881.31;5052741;28;20036;-64
2023/09/25 11:05:28;;;;;;;4.15;1.70;;;;;;;28.30;31.61;100882.53;5051780;28;20102;-63
2023/09/25 11:07:53;;;;;;;2.83;1.60;;;;;;;28.06;32.17;100887.75;5053019;28;20044;-63
2023/09/25 11:10:19;;;;;;;2.33;1.40;;;;;;;28.14;31.83;100880.88;5052875;28;20040;-64
2023/09/25 11:12:47;;;;;;;3.45;1.77;;;;;;;28.27;32.60;100882.25;5052549;28;20036;-64
2023/09/25 11:15:19;;;;;;;3.58;1.65;;;;;;;28.63;31.51;100872.91;5052794;28;20033;-65
2023/09/25 11:17:48;;;;;;;3.30;1.50;;;;;;;28.46;32.05;100872.38;5052698;28;20092;-65
2023/09/25 11:20:18;;;;;;;3.05;1.67;;;;;;;28.41;31.94;100864.16;5052675;28;20112;-64
2023/09/25 11:22:46;;;;;;;3.38;1.58;;;;;;;28.37;32.40;100874.88;5052398;28;20035;-63
2023/09/25 11:25:14;;;;;;;2.17;1.58;;;;;;;28.96;30.97;100864.31;5052513;28;20037;-66
2023/09/25 11:27:50;;;;;;;3.53;1.42;;;;;;;29.56;30.55;100871.41;5052464;28;20044;-64
2023/09/25 11:30:16;;;;;;;;;;;;;;;29.72;30.32;100869.38;5052434;28;20036;-65
2023/09/25 11:32:45;;;;;;;3.93;1.60;;;;;;;29.55;29.70;100863.47;5052129;28;20387;-64
2023/09/25 11:35:13;;;;;;;3.58;1.63;;;;;;;30.04;29.68;100868.84;5052366;28;20037;-64
2023/09/25 11:38:00;;;;;;;3.47;1.65;;;;;;;30.19;28.94;100870.66;5052370;28;20041;-64
2023/09/25 11:40:27;;;;;;;3.40;1.40;;;;;;;30.52;29.13;100858.78;5052344;28;20561;-65
2023/09/25 11:42:54;;;;;;;3.15;1.58;;;;;;;30.72;29.10;100862.47;5052038;28;20024;-64
2023/09/25 11:45:20;;;;;;;3.80;1.83;;;;;;;30.43;28.59;100855.03;5052186;28;20043;-64
2023/09/25 11:47:46;;;;;;;3.00;1.53;;;;;;;30.63;29.01;100856.72;5052366;28;20115;-64
2023/09/25 11:50:13;;;;;;;2.88;1.60;;;;;;;31.14;28.47;100861.63;5052324;28;20090;-64
2023/09/25 11:52:41;;;;;;;3.33;1.85;;;;;;;30.63;29.10;100853.16;5051816;28;20033;-64
2023/09/25 11:55:09;;;;;;;2.50;1.60;;;;;;;31.05;29.31;100841.41;5052119;28;20041;-64
2023/09/25 11:57:35;;;;;;;3.83;1.60;;;;;;;31.04;28.58;100843.34;5052054;28;20055;-64
2023/09/25 12:00:01;;;;;;;3.67;1.70;;;;;;;31.32;28.54;100849.03;5051985;28;20041;-64
2023/09/25 12:02:28;;;;;;;3.47;1.53;;;;;;;30.68;28.29;100842.16;5032167;28;20061;-64
2023/09/25 12:04:54;;;;;;;2.38;1.60;;;;;;;30.64;29.21;100847.38;5051358;28;20028;-64
2023/09/25 12:07:20;;;;;;;4.00;1.50;;;;;;;31.00;28.96;100846.97;5051167;28;20395;-64
2023/09/25 12:09:46;;;;;;;3.23;1.40;;;;;;;30.26;29.43;100850.00;5051728;28;20081;-64
2023/09/25 12:12:12;;;;;;;3.40;1.65;;;;;;;31.36;28.56;100850.06;5051253;28;20040;-65
2023/09/25 12:14:37;;;;;;;2.63;1.70;;;;;;;31.68;27.51;100851.22;5051305;28;20041;-64
2023/09/25 12:17:03;;;;;;;3.07;1.73;;;;;;;30.20;29.30;100840.16;5051347;28;20155;-64
2023/09/25 12:19:28;;;;;;;3.93;1.90;;;;;;;31.24;28.84;100852.47;5058680;28;20107;-64
2023/09/25 12:21:54;;;;;;;3.30;2.23;;;;;;;31.39;28.63;100852.22;5051361;28;20107;-63
2023/09/25 12:24:19;;;;;;;3.73;1.73;;;;;;;31.56;28.44;100847.03;5051217;28;20037;-65
2023/09/25 12:26:45;;;;;;;5.77;1.97;;;;;;;31.91;27.69;100844.00;5051376;28;20131;-64
2023/09/25 12:29:10;;;;;;;3.07;1.93;;;;;;;31.13;28.60;100835.25;5033721;28;20025;-64
2023/09/25 12:31:35;;;;;;;2.67;1.90;;;;;;;31.74;27.63;100839.03;5051294;28;20487;-64
2023/09/25 12:34:01;;;;;;;2.67;1.57;;;;;;;32.01;27.75;100841.88;5051075;28;20555;-64
2023/09/25 12:36:27;;;;;;;3.60;1.57;;;;;;;30.43;28.71;100832.22;5051069;28;20029;-64
2023/09/25 12:38:52;;;;;;;1.97;1.40;;;;;;;30.63;28.77;100842.16;5051376;28;20082;-64
2023/09/25 12:41:18;;;;;;;3.10;1.57;;;;;;;31.06;29.08;100835.59;5051227;28;20163;-64
2023/09/25 12:43:43;;;;;;;4.00;1.90;;;;;;;31.55;27.39;100839.84;5053723;28;20040;-64
2023/09/25 12:46:08;;;;;;;3.67;1.70;;;;;;;30.87;28.02;100837.50;5053911;28;20492;-64
2023/09/25 12:48:37;;;;;;;3.33;1.60;;;;;;;31.75;27.64;100841.47;5062601;28;20492;-64
2023/09/25 12:51:03;;;;;;;2.60;1.67;;;;;;;31.78;26.87;100835.41;5055247;28;20032;-65
2023/09/25 12:53:28;;;;;;;2.63;1.63;;;;;;;30.71;29.30;100831.41;5055026;28;20391;-65
2023/09/25 12:55:53;;;;;;;3.13;1.90;;;;;;;30.38;29.02;100824.84;5055358;28;20564;-65
2023/09/25 12:58:19;;;;;;;2.60;1.50;;;;;;;31.26;28.48;100825.47;5055354;28;20049;-64
2023/09/25 13:00:44;;;;;;;3.93;1.77;;;;;;;31.01;28.97;100826.59;5055264;28;20151;-64
2023/09/25 13:03:10;;;;;;;4.30;1.60;;;;;;;31.22;28.21;100816.94;5055057;28;20047;-64
2023/09/25 13:05:35;;;;;;;2.90;1.80;;;;;;;31.16;28.63;100814.56;5055204;28;20051;-64
2023/09/25 13:08:00;;;;;;;4.10;1.97;;;;;;;31.22;28.79;100816.94;5055238;28;20095;-63
2023/09/25 13:10:27;;;;;;;3.17;1.77;;;;;;;30.62;28.26;100802.88;5055080;28;20082;-63
2023/09/25 13:12:53;;;;;;;2.97;1.83;;;;;;;31.52;27.68;100803.88;5054756;28;20047;-64
2023/09/25 13:15:20;;;;;;;2.40;1.77;;;;;;;31.84;27.31;100806.66;5055239;28;20108;-63
2023/09/25 13:17:47;;;;;;;4.00;1.75;;;;;;;31.40;27.89;100807.06;5054975;28;20048;-64
2023/09/25 13:20:12;;;;;;;2.47;1.58;;;;;;;31.64;27.58;100801.47;5054929;28;20041;-64
2023/09/25 13:22:38;;;;;;;2.80;1.70;;;;;;;31.18;27.87;100802.16;5054659;28;20048;-63
2023/09/25 13:25:05;;;;;;;4.60;1.97;;;;;;;30.73;28.21;100804.41;5054650;28;20064;-63
2023/09/25 13:27:30;;;;;;;2.97;1.58;;;;;;;31.42;27.31;100804.03;5054726;28;20079;-63
2023/09/25 13:29:56;;;;;;;3.60;1.80;;;;;;;31.56;27.30;100804.88;5054944;28;20036;-63
2023/09/25 13:32:22;;;;;;;2.43;1.73;;;;;;;31.31;27.72;100800.63;5054799;28;20126;-64
2023/09/25 13:34:48;;;;;;;;;;;;;;;31.31;27.63;100804.19;5020983;28;20451;-63
2023/09/25 13:37:13;;;;;;;4.00;1.80;;;;;;;31.37;27.42;100807.69;5054665;28;20007;-63
2023/09/25 13:39:39;;;;;;;3.50;1.60;;;;;;;31.67;27.65;100800.84;5054805;28;20120;-63
2023/09/25 13:42:06;;;;;;;3.03;1.80;;;;;;;31.84;27.03;100798.41;5054544;28;20041;-63
2023/09/25 13:44:33;;;;;;;6.73;1.97;;;;;;;30.80;28.50;100798.56;5053477;28;20039;-65
2023/09/25 13:46:58;;;;;;;2.88;1.52;;;;;;;30.53;27.86;100799.16;5054607;28;20487;-63
2023/09/25 13:49:23;;;;;;;4.30;1.87;;;;;;;30.25;29.28;100793.38;5054694;28;20041;-63
2023/09/25 13:51:50;;;;;;;5.23;1.80;;;;;;;30.29;29.61;100796.38;5053333;28;20426;-63
2023/09/25 13:54:15;;;;;;;2.42;1.80;;;;;;;29.87;29.15;100797.88;5053667;28;20029;-63
2023/09/25 13:56:41;;;;;;;3.20;1.90;;;;;;;28.44;31.11;100789.66;5054300;28;20047;-63
2023/09/25 13:59:07;;;;;;;2.97;1.93;;;;;;;28.51;31.38;100795.66;5053934;28;20031;-64
2023/09/25 14:01:33;;;;;;;4.53;1.87;;;;;;;28.38;33.05;100791.59;5053780;28;20533;-64
2023/09/25 14:03:59;;;;;;;3.38;1.65;;;;;;;28.44;32.39;100799.81;5053698;28;20037;-64
2023/09/25 14:06:25;;;;;;;4.23;1.63;;;;;;;28.05;32.56;100792.19;5053892;28;20462;-62
2023/09/25 14:08:50;;;;;;;3.37;1.60;;;;;;;27.23;34.37;100800.34;5053562;28;20041;-63
2023/09/25 14:11:16;;;;;;;2.40;1.63;;;;;;;27.05;34.42;100801.66;5053780;28;20387;-63
2023/09/25 14:13:42;;;;;;;2.72;1.60;;;;;;;26.62;34.13;100791.94;5040907;28;20037;-63
2023/09/25 14:16:08;;;;;;;3.97;1.65;;;;;;;26.24;35.39;100782.97;5035005;28;20128;-63
2023/09/25 14:18:37;;;;;;;3.35;2.10;;;;;;;26.06;35.82;100785.28;5053832;28;20121;-63
2023/09/25 14:21:03;;;;;;;5.32;1.90;;;;;;;25.59;36.83;100781.38;5053574;28;20037;-63
2023/09/25 14:23:28;;;;;;;5.13;3.25;;;;;;;25.11;38.14;100785.84;5053386;28;20434;-63
2023/09/25 14:25:54;;;;;;;4.93;2.13;;;;;;;25.62;37.44;100782.75;5053716;28;20037;-64
2023/09/25 14:28:19;;;;;;;4.97;2.00;;;;;;;25.16;37.54;100785.88;5053829;28;20086;-63
2023/09/25 14:30:44;;;;;;;4.32;1.80;;;;;;;24.99;37.98;100781.56;5053757;28;20373;-63
2023/09/25 14:33:11;;;;;;;7.70;2.08;;;;;;;25.34;37.73;100789.31;5053356;28;20120;-63
2023/09/25 14:35:36;;;;;;;3.10;1.73;;;;;;;24.73;38.99;100783.19;5053506;28;20094;-63
2023/09/25 14:38:02;;;;;;;3.03;1.60;;;;;;;24.89;38.53;100776.81;5053419;28;20091;-63
2023/09/25 14:40:27;;;;;;;2.67;1.80;;;;;;;24.78;38.55;100775.91;5053350;28;20040;-64
2023/09/25 14:42:54;;;;;;;3.80;1.95;;;;;;;24.69;38.96;100782.03;5053073;28;20508;-64
2023/09/25 14:45:19;;;;;;;3.28;1.80;;;;;;;24.73;38.98;100769.56;5053355;28;20067;-64
2023/09/25 14:47:47;;;;;;;3.58;1.90;;;;;;;24.59;39.30;100774.56;5053342;28;20500;-64
2023/09/25 14:50:13;;;;;;;5.30;2.13;;;;;;;24.53;39.28;100770.13;5053272;28;20554;-64
2023/09/25 14:52:39;;;;;;;6.80;2.10;;;;;;;24.57;38.59;100769.34;5052949;28;20029;-64
2023/09/25 14:55:05;;;;;;;5.35;2.05;;;;;;;24.49;39.24;100771.69;5053246;28;20033;-64
2023/09/25 14:57:31;;;;;;;2.05;1.50;;;;;;;24.47;38.70;100768.41;5053214;28;20040;-65
2023/09/25 14:59:57;;;;;;;3.08;1.95;;;;;;;24.45;38.84;100776.00;5053200;28;20040;-65
2023/09/25 15:02:22;;;;;;;5.18;2.08;;;;;;;24.13;39.46;100767.66;5053002;28;20128;-63
2023/09/25 15:04:48;;;;;;;3.83;2.13;;;;;;;24.22;39.22;100772.41;5052335;28;20061;-64
2023/09/25 15:07:13;;;;;;;6.28;2.13;;;;;;;24.05;40.01;100771.59;5052615;28;20037;-64
2023/09/25 15:09:38;;;;;;;3.70;2.13;;;;;;;24.18;39.83;100768.53;5052936;28;20032;-64
2023/09/25 15:12:04;;;;;;;4.20;2.10;;;;;;;24.03;39.90;100765.59;5052894;28;20494;-65
2023/09/25 15:14:30;;;;;;;4.97;1.98;;;;;;;23.91;40.06;100770.31;5052602;28;20041;-64
2023/09/25 15:16:55;;;;;;;3.95;1.75;;;;;;;23.96;39.95;100773.94;5052845;28;20434;-64
2023/09/25 15:19:21;;;;;;;4.47;1.77;;;;;;;23.91;40.28;100771.13;5052771;28;20040;-63
2023/09/25 15:21:48;;;;;;;3.67;1.85;;;;;;;23.87;40.79;100780.06;5052499;28;20037;-64
2023/09/25 15:24:15;;;;;;;5.13;1.92;;;;;;;23.76;40.70;100781.78;5052423;28;20113;-63
2023/09/25 15:26:41;;;;;;;3.22;2.10;;;;;;;23.69;40.87;100778.41;5052637;28;20037;-64
2023/09/25 15:29:06;;;;;;;4.00;2.13;;;;;;;23.73;40.03;100780.34;5052629;28;20045;-62
2023/09/25 15:31:31;;;;;;;5.78;2.13;;;;;;;23.64;40.09;100781.84;5052580;28;20040;-65
2023/09/25 15:33:58;;;;;;;4.93;1.95;;;;;;;23.49;40.53;100787.84;5052319;28;20127;-64
2023/09/25 15:36:24;;;;;;;3.88;1.88;;;;;;;23.59;40.42;100780.91;5052299;28;20036;-63
2023/09/25 15:38:50;;;;;;;4.35;2.00;;;;;;;23.43;40.31;100769.78;5052209;28;20060;-64
2023/09/25 15:41:15;;;;;;;3.05;1.98;;;;;;;23.34;40.44;100776.66;5052460;28;20044;-64
2023/09/25 15:43:40;;;;;;;4.25;1.88;;;;;;;23.34;40.90;100770.41;5052420;28;20041;-64
2023/09/25 15:46:11;;;;;;;3.97;1.90;;;;;;;23.28;41.31;100780.41;5052238;28;20041;-64